sensor_id;sensor_type;location;lat;lon;timestamp;P1;durP1;ratioP1;P2;durP2;ratioP2
17790;SDS011;9019;48.132;-1.210;2023-02-28T00:00:34;274.93;;;71.53;;
17790;SDS011;9019;48.132;-1.210;2023-02-28T00:03:01;318.80;;;83.40;;
17790;SDS011;9019;48.132;-1.210;2023-02-28T00:05:29;521.67;;;164.27;;
17790;SDS011;9019;48.132;-1.210;2023-02-28T00:07:56;54.43;;;22.63;;
17790;SDS011;9019;48.132;-1.210;2023-02-28T00:10:26;181.30;;;72.83;;
17790;SDS011;9019;48.132;-1.210;2023-02-28T00:12:55;24.87;;;12.97;;
17790;SDS011;9019;48.132;-1.210;2023-02-28T00:15:25;28.20;;;18.13;;
17790;SDS011;9019;48.132;-1.210;2023-02-28T00:17:53;34.60;;;23.00;;
17790;SDS011;9019;48.132;-1.210;2023-02-28T00:20:20;31.33;;;26.00;;
17790;SDS011;9019;48.132;-1.210;2023-02-28T00:22:49;13.80;;;9.80;;
17790;SDS011;9019;48.132;-1.210;2023-02-28T00:25:18;9.87;;;7.80;;
17790;SDS011;9019;48.132;-1.210;2023-02-28T00:27:47;11.30;;;8.27;;
17790;SDS011;9019;48.132;-1.210;2023-02-28T00:30:15;9.07;;;7.00;;
17790;SDS011;9019;48.132;-1.210;2023-02-28T00:32:44;9.87;;;6.73;;
17790;SDS011;9019;48.132;-1.210;2023-02-28T00:35:11;7.60;;;5.37;;
17790;SDS011;9019;48.132;-1.210;2023-02-28T00:37:38;9.93;;;4.90;;
17790;SDS011;9019;48.132;-1.210;2023-02-28T00:40:06;9.57;;;5.17;;
17790;SDS011;9019;48.132;-1.210;2023-02-28T00:42:34;9.03;;;5.20;;
17790;SDS011;9019;48.132;-1.210;2023-02-28T00:45:03;10.40;;;5.90;;
17790;SDS011;9019;48.132;-1.210;2023-02-28T00:47:31;12.63;;;7.13;;
17790;SDS011;9019;48.132;-1.210;2023-02-28T00:49:58;11.53;;;6.30;;
17790;SDS011;9019;48.132;-1.210;2023-02-28T00:52:25;9.80;;;6.20;;
17790;SDS011;9019;48.132;-1.210;2023-02-28T00:54:52;7.67;;;5.17;;
17790;SDS011;9019;48.132;-1.210;2023-02-28T00:57:19;7.83;;;5.67;;
17790;SDS011;9019;48.132;-1.210;2023-02-28T00:59:46;9.17;;;5.10;;
17790;SDS011;9019;48.132;-1.210;2023-02-28T01:02:14;8.47;;;4.77;;
17790;SDS011;9019;48.132;-1.210;2023-02-28T01:04:41;8.27;;;5.60;;
17790;SDS011;9019;48.132;-1.210;2023-02-28T01:07:08;7.73;;;4.93;;
17790;SDS011;9019;48.132;-1.210;2023-02-28T01:09:35;7.97;;;5.10;;
17790;SDS011;9019;48.132;-1.210;2023-02-28T01:12:02;8.80;;;5.77;;
17790;SDS011;9019;48.132;-1.210;2023-02-28T01:14:29;7.30;;;5.30;;
17790;SDS011;9019;48.132;-1.210;2023-02-28T01:16:56;9.83;;;6.13;;
17790;SDS011;9019;48.132;-1.210;2023-02-28T01:19:24;9.87;;;7.10;;
17790;SDS011;9019;48.132;-1.210;2023-02-28T01:21:51;9.80;;;6.27;;
17790;SDS011;9019;48.132;-1.210;2023-02-28T01:24:18;8.67;;;5.90;;
17790;SDS011;9019;48.132;-1.210;2023-02-28T01:26:45;9.67;;;5.70;;
17790;SDS011;9019;48.132;-1.210;2023-02-28T01:29:12;10.13;;;5.63;;
17790;SDS011;9019;48.132;-1.210;2023-02-28T01:31:39;9.90;;;6.30;;
17790;SDS011;9019;48.132;-1.210;2023-02-28T01:34:06;9.87;;;6.00;;
17790;SDS011;9019;48.132;-1.210;2023-02-28T01:36:34;8.63;;;5.97;;
17790;SDS011;9019;48.132;-1.210;2023-02-28T01:39:01;12.13;;;6.80;;
17790;SDS011;9019;48.132;-1.210;2023-02-28T01:41:29;13.07;;;7.23;;
17790;SDS011;9019;48.132;-1.210;2023-02-28T01:43:59;15.23;;;7.27;;
17790;SDS011;9019;48.132;-1.210;2023-02-28T01:46:29;10.50;;;6.67;;
17790;SDS011;9019;48.132;-1.210;2023-02-28T01:48:58;10.57;;;7.00;;
17790;SDS011;9019;48.132;-1.210;2023-02-28T01:51:32;8.13;;;5.93;;
17790;SDS011;9019;48.132;-1.210;2023-02-28T01:54:05;8.63;;;6.27;;
17790;SDS011;9019;48.132;-1.210;2023-02-28T01:56:38;8.83;;;6.57;;
17790;SDS011;9019;48.132;-1.210;2023-02-28T01:59:10;8.90;;;6.30;;
17790;SDS011;9019;48.132;-1.210;2023-02-28T02:01:41;10.87;;;6.37;;
17790;SDS011;9019;48.132;-1.210;2023-02-28T02:04:08;9.37;;;6.47;;
17790;SDS011;9019;48.132;-1.210;2023-02-28T02:06:37;9.10;;;6.60;;
17790;SDS011;9019;48.132;-1.210;2023-02-28T02:09:08;8.50;;;6.37;;
17790;SDS011;9019;48.132;-1.210;2023-02-28T02:11:35;12.67;;;7.03;;
17790;SDS011;9019;48.132;-1.210;2023-02-28T02:14:10;10.70;;;6.60;;
17790;SDS011;9019;48.132;-1.210;2023-02-28T02:16:51;10.63;;;6.50;;
17790;SDS011;9019;48.132;-1.210;2023-02-28T02:19:45;12.47;;;6.87;;
17790;SDS011;9019;48.132;-1.210;2023-02-28T02:25:34;10.43;;;6.73;;
17790;SDS011;9019;48.132;-1.210;2023-02-28T02:28:21;11.43;;;7.17;;
17790;SDS011;9019;48.132;-1.210;2023-02-28T02:31:06;10.90;;;6.90;;
17790;SDS011;9019;48.132;-1.210;2023-02-28T02:34:14;9.87;;;7.07;;
17790;SDS011;9019;48.132;-1.210;2023-02-28T02:37:02;11.30;;;6.93;;
17790;SDS011;9019;48.132;-1.210;2023-02-28T02:39:39;11.13;;;7.23;;
17790;SDS011;9019;48.132;-1.210;2023-02-28T02:42:14;11.20;;;7.33;;
17790;SDS011;9019;48.132;-1.210;2023-02-28T02:44:45;9.53;;;7.23;;
17790;SDS011;9019;48.132;-1.210;2023-02-28T02:47:15;11.13;;;7.87;;
17790;SDS011;9019;48.132;-1.210;2023-02-28T02:49:48;12.97;;;7.33;;
17790;SDS011;9019;48.132;-1.210;2023-02-28T02:52:19;12.73;;;7.60;;
17790;SDS011;9019;48.132;-1.210;2023-02-28T02:54:49;10.40;;;7.67;;
17790;SDS011;9019;48.132;-1.210;2023-02-28T02:57:21;11.93;;;7.80;;
17790;SDS011;9019;48.132;-1.210;2023-02-28T02:59:51;14.10;;;8.17;;
17790;SDS011;9019;48.132;-1.210;2023-02-28T03:02:20;10.43;;;7.53;;
17790;SDS011;9019;48.132;-1.210;2023-02-28T03:04:50;11.87;;;7.63;;
17790;SDS011;9019;48.132;-1.210;2023-02-28T03:07:19;12.13;;;7.97;;
17790;SDS011;9019;48.132;-1.210;2023-02-28T03:09:52;12.10;;;7.67;;
17790;SDS011;9019;48.132;-1.210;2023-02-28T03:12:19;12.73;;;8.17;;
17790;SDS011;9019;48.132;-1.210;2023-02-28T03:14:52;11.73;;;7.93;;
17790;SDS011;9019;48.132;-1.210;2023-02-28T03:17:35;12.17;;;8.20;;
17790;SDS011;9019;48.132;-1.210;2023-02-28T03:20:26;12.63;;;8.07;;
17790;SDS011;9019;48.132;-1.210;2023-02-28T03:23:03;13.07;;;8.30;;
17790;SDS011;9019;48.132;-1.210;2023-02-28T03:25:41;12.70;;;8.63;;
17790;SDS011;9019;48.132;-1.210;2023-02-28T03:28:19;12.13;;;8.20;;
17790;SDS011;9019;48.132;-1.210;2023-02-28T03:30:56;10.97;;;7.77;;
17790;SDS011;9019;48.132;-1.210;2023-02-28T03:33:27;13.63;;;8.97;;
17790;SDS011;9019;48.132;-1.210;2023-02-28T03:35:58;14.13;;;8.90;;
17790;SDS011;9019;48.132;-1.210;2023-02-28T03:38:29;14.30;;;8.90;;
17790;SDS011;9019;48.132;-1.210;2023-02-28T03:41:00;13.70;;;9.00;;
17790;SDS011;9019;48.132;-1.210;2023-02-28T03:43:32;13.83;;;9.07;;
17790;SDS011;9019;48.132;-1.210;2023-02-28T03:46:04;14.13;;;9.13;;
17790;SDS011;9019;48.132;-1.210;2023-02-28T03:48:36;15.93;;;9.33;;
17790;SDS011;9019;48.132;-1.210;2023-02-28T03:51:08;14.53;;;9.50;;
17790;SDS011;9019;48.132;-1.210;2023-02-28T03:53:40;15.20;;;9.60;;
17790;SDS011;9019;48.132;-1.210;2023-02-28T03:56:12;15.23;;;9.97;;
17790;SDS011;9019;48.132;-1.210;2023-02-28T03:58:43;14.63;;;9.57;;
17790;SDS011;9019;48.132;-1.210;2023-02-28T04:01:19;13.63;;;9.20;;
17790;SDS011;9019;48.132;-1.210;2023-02-28T04:03:49;14.60;;;9.43;;
17790;SDS011;9019;48.132;-1.210;2023-02-28T04:06:18;14.67;;;9.43;;
17790;SDS011;9019;48.132;-1.210;2023-02-28T04:08:46;16.67;;;9.57;;
17790;SDS011;9019;48.132;-1.210;2023-02-28T04:11:17;14.93;;;9.67;;
17790;SDS011;9019;48.132;-1.210;2023-02-28T04:13:47;15.40;;;10.07;;
17790;SDS011;9019;48.132;-1.210;2023-02-28T04:16:14;16.37;;;10.10;;
17790;SDS011;9019;48.132;-1.210;2023-02-28T04:18:41;14.07;;;9.57;;
17790;SDS011;9019;48.132;-1.210;2023-02-28T04:21:09;14.17;;;9.47;;
17790;SDS011;9019;48.132;-1.210;2023-02-28T04:23:38;14.90;;;9.47;;
17790;SDS011;9019;48.132;-1.210;2023-02-28T04:26:04;15.37;;;10.17;;
17790;SDS011;9019;48.132;-1.210;2023-02-28T04:28:32;15.50;;;10.00;;
17790;SDS011;9019;48.132;-1.210;2023-02-28T04:31:00;15.00;;;10.17;;
17790;SDS011;9019;48.132;-1.210;2023-02-28T04:33:28;16.00;;;10.43;;
17790;SDS011;9019;48.132;-1.210;2023-02-28T04:35:59;16.03;;;10.40;;
17790;SDS011;9019;48.132;-1.210;2023-02-28T04:38:27;15.50;;;10.53;;
17790;SDS011;9019;48.132;-1.210;2023-02-28T04:40:58;15.97;;;10.43;;
17790;SDS011;9019;48.132;-1.210;2023-02-28T04:43:25;15.63;;;10.83;;
17790;SDS011;9019;48.132;-1.210;2023-02-28T04:45:52;16.93;;;10.73;;
17790;SDS011;9019;48.132;-1.210;2023-02-28T04:48:21;16.40;;;10.73;;
17790;SDS011;9019;48.132;-1.210;2023-02-28T04:50:49;17.53;;;10.87;;
17790;SDS011;9019;48.132;-1.210;2023-02-28T04:53:16;18.87;;;10.60;;
17790;SDS011;9019;48.132;-1.210;2023-02-28T04:55:44;13.70;;;10.17;;
17790;SDS011;9019;48.132;-1.210;2023-02-28T04:58:12;15.73;;;10.50;;
17790;SDS011;9019;48.132;-1.210;2023-02-28T05:00:39;17.47;;;10.73;;
17790;SDS011;9019;48.132;-1.210;2023-02-28T05:03:06;15.33;;;10.53;;
17790;SDS011;9019;48.132;-1.210;2023-02-28T05:05:34;14.50;;;10.33;;
17790;SDS011;9019;48.132;-1.210;2023-02-28T05:08:01;26.17;;;11.10;;
17790;SDS011;9019;48.132;-1.210;2023-02-28T05:10:30;16.23;;;11.23;;
17790;SDS011;9019;48.132;-1.210;2023-02-28T05:12:57;16.70;;;11.20;;
17790;SDS011;9019;48.132;-1.210;2023-02-28T05:15:25;16.93;;;10.90;;
17790;SDS011;9019;48.132;-1.210;2023-02-28T05:17:52;19.17;;;11.93;;
17790;SDS011;9019;48.132;-1.210;2023-02-28T05:20:19;17.63;;;11.60;;
17790;SDS011;9019;48.132;-1.210;2023-02-28T05:22:46;18.23;;;11.13;;
17790;SDS011;9019;48.132;-1.210;2023-02-28T05:25:15;16.43;;;11.47;;
17790;SDS011;9019;48.132;-1.210;2023-02-28T05:27:44;18.27;;;11.73;;
17790;SDS011;9019;48.132;-1.210;2023-02-28T05:30:11;17.50;;;11.33;;
17790;SDS011;9019;48.132;-1.210;2023-02-28T05:32:40;16.40;;;11.17;;
17790;SDS011;9019;48.132;-1.210;2023-02-28T05:35:08;19.43;;;12.13;;
17790;SDS011;9019;48.132;-1.210;2023-02-28T05:37:36;19.90;;;12.67;;
17790;SDS011;9019;48.132;-1.210;2023-02-28T05:40:04;21.33;;;12.17;;
17790;SDS011;9019;48.132;-1.210;2023-02-28T05:42:33;18.93;;;12.53;;
17790;SDS011;9019;48.132;-1.210;2023-02-28T05:45:00;18.93;;;12.60;;
17790;SDS011;9019;48.132;-1.210;2023-02-28T05:47:27;21.43;;;12.93;;
17790;SDS011;9019;48.132;-1.210;2023-02-28T05:49:56;19.13;;;12.73;;
17790;SDS011;9019;48.132;-1.210;2023-02-28T05:52:23;19.43;;;13.10;;
17790;SDS011;9019;48.132;-1.210;2023-02-28T05:54:50;21.13;;;12.33;;
17790;SDS011;9019;48.132;-1.210;2023-02-28T05:57:16;21.90;;;12.90;;
17790;SDS011;9019;48.132;-1.210;2023-02-28T05:59:43;20.07;;;12.47;;
17790;SDS011;9019;48.132;-1.210;2023-02-28T06:02:10;19.30;;;13.17;;
17790;SDS011;9019;48.132;-1.210;2023-02-28T06:04:40;22.63;;;13.33;;
17790;SDS011;9019;48.132;-1.210;2023-02-28T06:07:08;21.40;;;12.93;;
17790;SDS011;9019;48.132;-1.210;2023-02-28T06:09:36;19.40;;;12.00;;
17790;SDS011;9019;48.132;-1.210;2023-02-28T06:12:04;21.17;;;13.13;;
17790;SDS011;9019;48.132;-1.210;2023-02-28T06:14:34;31.93;;;18.10;;
17790;SDS011;9019;48.132;-1.210;2023-02-28T06:17:02;42.63;;;24.03;;
17790;SDS011;9019;48.132;-1.210;2023-02-28T06:19:31;32.83;;;20.37;;
17790;SDS011;9019;48.132;-1.210;2023-02-28T06:21:58;47.47;;;26.47;;
17790;SDS011;9019;48.132;-1.210;2023-02-28T06:24:27;46.03;;;26.87;;
17790;SDS011;9019;48.132;-1.210;2023-02-28T06:26:54;22.77;;;14.53;;
17790;SDS011;9019;48.132;-1.210;2023-02-28T06:29:21;82.80;;;47.03;;
17790;SDS011;9019;48.132;-1.210;2023-02-28T06:31:48;27.70;;;17.10;;
17790;SDS011;9019;48.132;-1.210;2023-02-28T06:34:15;35.40;;;21.90;;
17790;SDS011;9019;48.132;-1.210;2023-02-28T06:36:42;33.33;;;20.30;;
17790;SDS011;9019;48.132;-1.210;2023-02-28T06:39:09;43.53;;;29.20;;
17790;SDS011;9019;48.132;-1.210;2023-02-28T06:41:37;43.97;;;29.83;;
17790;SDS011;9019;48.132;-1.210;2023-02-28T06:44:05;25.67;;;17.30;;
17790;SDS011;9019;48.132;-1.210;2023-02-28T06:46:32;40.90;;;28.70;;
17790;SDS011;9019;48.132;-1.210;2023-02-28T06:48:59;26.70;;;17.50;;
17790;SDS011;9019;48.132;-1.210;2023-02-28T06:51:26;52.53;;;31.13;;
17790;SDS011;9019;48.132;-1.210;2023-02-28T06:53:53;48.73;;;30.40;;
17790;SDS011;9019;48.132;-1.210;2023-02-28T06:56:19;44.87;;;27.87;;
17790;SDS011;9019;48.132;-1.210;2023-02-28T06:58:48;39.60;;;28.00;;
17790;SDS011;9019;48.132;-1.210;2023-02-28T07:01:17;44.73;;;33.73;;
17790;SDS011;9019;48.132;-1.210;2023-02-28T07:03:45;25.57;;;16.80;;
17790;SDS011;9019;48.132;-1.210;2023-02-28T07:06:17;21.50;;;15.90;;
17790;SDS011;9019;48.132;-1.210;2023-02-28T07:08:44;22.63;;;15.00;;
17790;SDS011;9019;48.132;-1.210;2023-02-28T07:11:11;20.53;;;13.33;;
17790;SDS011;9019;48.132;-1.210;2023-02-28T07:13:38;21.13;;;14.00;;
17790;SDS011;9019;48.132;-1.210;2023-02-28T07:16:07;22.80;;;13.83;;
17790;SDS011;9019;48.132;-1.210;2023-02-28T07:18:38;25.90;;;14.20;;
17790;SDS011;9019;48.132;-1.210;2023-02-28T07:21:06;20.67;;;14.13;;
17790;SDS011;9019;48.132;-1.210;2023-02-28T07:23:35;19.33;;;13.60;;
17790;SDS011;9019;48.132;-1.210;2023-02-28T07:26:04;22.20;;;13.70;;
17790;SDS011;9019;48.132;-1.210;2023-02-28T07:28:31;20.07;;;13.13;;
17790;SDS011;9019;48.132;-1.210;2023-02-28T07:31:02;19.77;;;13.73;;
17790;SDS011;9019;48.132;-1.210;2023-02-28T07:33:31;18.53;;;13.77;;
17790;SDS011;9019;48.132;-1.210;2023-02-28T07:36:02;19.03;;;13.03;;
17790;SDS011;9019;48.132;-1.210;2023-02-28T07:38:29;17.93;;;13.40;;
17790;SDS011;9019;48.132;-1.210;2023-02-28T07:40:57;21.80;;;14.13;;
17790;SDS011;9019;48.132;-1.210;2023-02-28T07:43:23;17.90;;;13.87;;
17790;SDS011;9019;48.132;-1.210;2023-02-28T07:45:50;20.37;;;14.23;;
17790;SDS011;9019;48.132;-1.210;2023-02-28T07:48:17;17.80;;;12.97;;
17790;SDS011;9019;48.132;-1.210;2023-02-28T07:50:45;15.40;;;13.40;;
17790;SDS011;9019;48.132;-1.210;2023-02-28T07:53:21;18.33;;;13.70;;
17790;SDS011;9019;48.132;-1.210;2023-02-28T07:55:48;17.60;;;13.33;;
17790;SDS011;9019;48.132;-1.210;2023-02-28T07:58:15;17.43;;;14.07;;
17790;SDS011;9019;48.132;-1.210;2023-02-28T08:00:42;19.53;;;14.73;;
17790;SDS011;9019;48.132;-1.210;2023-02-28T08:03:09;18.07;;;14.40;;
17790;SDS011;9019;48.132;-1.210;2023-02-28T08:05:38;16.77;;;14.43;;
17790;SDS011;9019;48.132;-1.210;2023-02-28T08:08:07;19.33;;;15.93;;
17790;SDS011;9019;48.132;-1.210;2023-02-28T08:10:34;17.57;;;14.87;;
17790;SDS011;9019;48.132;-1.210;2023-02-28T08:13:01;17.43;;;13.20;;
17790;SDS011;9019;48.132;-1.210;2023-02-28T08:15:28;17.33;;;13.60;;
17790;SDS011;9019;48.132;-1.210;2023-02-28T08:17:55;15.50;;;12.83;;
17790;SDS011;9019;48.132;-1.210;2023-02-28T08:20:23;16.27;;;13.10;;
17790;SDS011;9019;48.132;-1.210;2023-02-28T08:22:50;17.80;;;14.33;;
17790;SDS011;9019;48.132;-1.210;2023-02-28T08:25:19;19.37;;;13.93;;
17790;SDS011;9019;48.132;-1.210;2023-02-28T08:27:46;16.77;;;14.03;;
17790;SDS011;9019;48.132;-1.210;2023-02-28T08:30:14;15.27;;;13.00;;
17790;SDS011;9019;48.132;-1.210;2023-02-28T08:32:41;14.47;;;12.73;;
17790;SDS011;9019;48.132;-1.210;2023-02-28T08:35:08;13.77;;;11.80;;
17790;SDS011;9019;48.132;-1.210;2023-02-28T08:37:36;15.77;;;12.50;;
17790;SDS011;9019;48.132;-1.210;2023-02-28T08:40:03;14.97;;;12.80;;
17790;SDS011;9019;48.132;-1.210;2023-02-28T08:42:32;14.70;;;11.97;;
17790;SDS011;9019;48.132;-1.210;2023-02-28T08:44:59;13.77;;;12.27;;
17790;SDS011;9019;48.132;-1.210;2023-02-28T08:47:26;13.27;;;11.87;;
17790;SDS011;9019;48.132;-1.210;2023-02-28T08:49:54;13.40;;;11.60;;
17790;SDS011;9019;48.132;-1.210;2023-02-28T08:52:20;13.30;;;11.70;;
17790;SDS011;9019;48.132;-1.210;2023-02-28T08:54:47;12.37;;;11.07;;
17790;SDS011;9019;48.132;-1.210;2023-02-28T08:57:14;12.40;;;11.10;;
17790;SDS011;9019;48.132;-1.210;2023-02-28T08:59:42;11.93;;;10.70;;
17790;SDS011;9019;48.132;-1.210;2023-02-28T09:02:10;11.77;;;10.57;;
17790;SDS011;9019;48.132;-1.210;2023-02-28T09:04:39;12.30;;;10.70;;
17790;SDS011;9019;48.132;-1.210;2023-02-28T09:07:06;11.80;;;10.47;;
17790;SDS011;9019;48.132;-1.210;2023-02-28T09:09:33;12.47;;;11.13;;
17790;SDS011;9019;48.132;-1.210;2023-02-28T09:12:00;12.07;;;10.63;;
17790;SDS011;9019;48.132;-1.210;2023-02-28T09:14:27;12.13;;;9.87;;
17790;SDS011;9019;48.132;-1.210;2023-02-28T09:16:55;11.03;;;9.70;;
17790;SDS011;9019;48.132;-1.210;2023-02-28T09:19:22;12.17;;;10.33;;
17790;SDS011;9019;48.132;-1.210;2023-02-28T09:21:49;10.37;;;9.13;;
17790;SDS011;9019;48.132;-1.210;2023-02-28T09:24:17;10.00;;;8.23;;
17790;SDS011;9019;48.132;-1.210;2023-02-28T09:26:45;9.67;;;8.30;;
17790;SDS011;9019;48.132;-1.210;2023-02-28T09:29:12;9.03;;;7.93;;
17790;SDS011;9019;48.132;-1.210;2023-02-28T09:31:41;11.07;;;8.70;;
17790;SDS011;9019;48.132;-1.210;2023-02-28T09:34:10;8.80;;;7.53;;
17790;SDS011;9019;48.132;-1.210;2023-02-28T09:36:37;8.97;;;7.47;;
17790;SDS011;9019;48.132;-1.210;2023-02-28T09:39:03;10.60;;;8.07;;
17790;SDS011;9019;48.132;-1.210;2023-02-28T09:41:36;10.43;;;8.13;;
17790;SDS011;9019;48.132;-1.210;2023-02-28T09:44:12;11.57;;;9.50;;
17790;SDS011;9019;48.132;-1.210;2023-02-28T09:46:48;10.37;;;8.33;;
17790;SDS011;9019;48.132;-1.210;2023-02-28T09:49:22;8.17;;;6.20;;
17790;SDS011;9019;48.132;-1.210;2023-02-28T09:51:53;9.77;;;7.47;;
17790;SDS011;9019;48.132;-1.210;2023-02-28T09:54:26;8.00;;;7.20;;
17790;SDS011;9019;48.132;-1.210;2023-02-28T09:56:56;7.63;;;6.13;;
17790;SDS011;9019;48.132;-1.210;2023-02-28T09:59:33;7.07;;;5.97;;
17790;SDS011;9019;48.132;-1.210;2023-02-28T10:02:10;6.40;;;5.70;;
17790;SDS011;9019;48.132;-1.210;2023-02-28T10:04:47;7.07;;;5.70;;
17790;SDS011;9019;48.132;-1.210;2023-02-28T10:07:28;7.30;;;6.03;;
17790;SDS011;9019;48.132;-1.210;2023-02-28T10:10:04;7.70;;;5.40;;
17790;SDS011;9019;48.132;-1.210;2023-02-28T10:12:41;5.30;;;4.80;;
17790;SDS011;9019;48.132;-1.210;2023-02-28T10:15:13;4.93;;;4.43;;
17790;SDS011;9019;48.132;-1.210;2023-02-28T10:17:42;6.03;;;4.23;;
17790;SDS011;9019;48.132;-1.210;2023-02-28T10:20:14;5.27;;;4.40;;
17790;SDS011;9019;48.132;-1.210;2023-02-28T10:22:49;4.63;;;4.00;;
17790;SDS011;9019;48.132;-1.210;2023-02-28T10:25:20;5.07;;;4.33;;
17790;SDS011;9019;48.132;-1.210;2023-02-28T10:27:49;8.27;;;3.90;;
17790;SDS011;9019;48.132;-1.210;2023-02-28T10:30:19;4.70;;;3.33;;
17790;SDS011;9019;48.132;-1.210;2023-02-28T10:32:47;7.40;;;3.27;;
17790;SDS011;9019;48.132;-1.210;2023-02-28T10:35:20;5.10;;;3.90;;
17790;SDS011;9019;48.132;-1.210;2023-02-28T10:37:50;4.40;;;3.63;;
17790;SDS011;9019;48.132;-1.210;2023-02-28T10:40:29;4.27;;;3.30;;
17790;SDS011;9019;48.132;-1.210;2023-02-28T10:43:00;4.87;;;3.40;;
17790;SDS011;9019;48.132;-1.210;2023-02-28T10:45:29;4.87;;;3.30;;
17790;SDS011;9019;48.132;-1.210;2023-02-28T10:47:59;3.83;;;3.30;;
17790;SDS011;9019;48.132;-1.210;2023-02-28T10:50:35;6.10;;;3.63;;
17790;SDS011;9019;48.132;-1.210;2023-02-28T10:53:16;4.30;;;3.67;;
17790;SDS011;9019;48.132;-1.210;2023-02-28T10:55:56;5.80;;;3.70;;
17790;SDS011;9019;48.132;-1.210;2023-02-28T10:58:25;5.10;;;3.70;;
17790;SDS011;9019;48.132;-1.210;2023-02-28T11:00:53;5.07;;;3.53;;
17790;SDS011;9019;48.132;-1.210;2023-02-28T11:03:24;4.80;;;3.10;;
17790;SDS011;9019;48.132;-1.210;2023-02-28T11:05:58;4.10;;;3.50;;
17790;SDS011;9019;48.132;-1.210;2023-02-28T11:08:29;4.93;;;3.57;;
17790;SDS011;9019;48.132;-1.210;2023-02-28T11:10:57;6.57;;;3.30;;
17790;SDS011;9019;48.132;-1.210;2023-02-28T11:13:31;4.97;;;3.80;;
17790;SDS011;9019;48.132;-1.210;2023-02-28T11:16:00;6.23;;;4.27;;
17790;SDS011;9019;48.132;-1.210;2023-02-28T11:18:30;4.67;;;3.90;;
17790;SDS011;9019;48.132;-1.210;2023-02-28T11:21:06;4.53;;;3.80;;
17790;SDS011;9019;48.132;-1.210;2023-02-28T11:23:35;6.00;;;4.40;;
17790;SDS011;9019;48.132;-1.210;2023-02-28T11:26:06;6.50;;;4.23;;
17790;SDS011;9019;48.132;-1.210;2023-02-28T11:28:36;5.60;;;4.03;;
17790;SDS011;9019;48.132;-1.210;2023-02-28T11:31:06;5.63;;;4.10;;
17790;SDS011;9019;48.132;-1.210;2023-02-28T11:33:45;6.23;;;4.37;;
17790;SDS011;9019;48.132;-1.210;2023-02-28T11:36:18;6.70;;;4.00;;
17790;SDS011;9019;48.132;-1.210;2023-02-28T11:38:50;4.60;;;4.00;;
17790;SDS011;9019;48.132;-1.210;2023-02-28T11:41:21;6.57;;;4.30;;
17790;SDS011;9019;48.132;-1.210;2023-02-28T11:44:05;4.50;;;3.93;;
17790;SDS011;9019;48.132;-1.210;2023-02-28T11:46:47;4.97;;;4.20;;
17790;SDS011;9019;48.132;-1.210;2023-02-28T11:49:20;5.23;;;4.27;;
17790;SDS011;9019;48.132;-1.210;2023-02-28T11:51:58;6.13;;;4.20;;
17790;SDS011;9019;48.132;-1.210;2023-02-28T11:54:35;8.63;;;4.60;;
17790;SDS011;9019;48.132;-1.210;2023-02-28T11:57:20;4.83;;;4.33;;
17790;SDS011;9019;48.132;-1.210;2023-02-28T11:59:59;5.50;;;4.57;;
17790;SDS011;9019;48.132;-1.210;2023-02-28T12:02:35;5.77;;;4.53;;
17790;SDS011;9019;48.132;-1.210;2023-02-28T12:05:23;5.80;;;4.70;;
17790;SDS011;9019;48.132;-1.210;2023-02-28T12:07:59;8.00;;;4.33;;
17790;SDS011;9019;48.132;-1.210;2023-02-28T12:10:51;8.00;;;4.57;;
17790;SDS011;9019;48.132;-1.210;2023-02-28T12:13:26;5.17;;;4.20;;
17790;SDS011;9019;48.132;-1.210;2023-02-28T12:21:52;5.70;;;4.67;;
17790;SDS011;9019;48.132;-1.210;2023-02-28T12:27:37;5.40;;;4.30;;
17790;SDS011;9019;48.132;-1.210;2023-02-28T12:30:13;5.00;;;4.23;;
17790;SDS011;9019;48.132;-1.210;2023-02-28T12:32:44;4.57;;;4.17;;
17790;SDS011;9019;48.132;-1.210;2023-02-28T12:35:14;5.17;;;4.17;;
17790;SDS011;9019;48.132;-1.210;2023-02-28T12:37:47;5.43;;;3.80;;
17790;SDS011;9019;48.132;-1.210;2023-02-28T12:40:19;4.70;;;4.20;;
17790;SDS011;9019;48.132;-1.210;2023-02-28T12:42:50;4.87;;;3.97;;
17790;SDS011;9019;48.132;-1.210;2023-02-28T12:45:20;6.33;;;4.27;;
17790;SDS011;9019;48.132;-1.210;2023-02-28T12:47:50;6.13;;;4.70;;
17790;SDS011;9019;48.132;-1.210;2023-02-28T12:50:23;5.27;;;4.57;;
17790;SDS011;9019;48.132;-1.210;2023-02-28T12:52:53;5.90;;;4.53;;
17790;SDS011;9019;48.132;-1.210;2023-02-28T12:55:27;5.50;;;4.40;;
17790;SDS011;9019;48.132;-1.210;2023-02-28T12:58:04;5.53;;;4.30;;
17790;SDS011;9019;48.132;-1.210;2023-02-28T13:00:43;5.70;;;4.40;;
17790;SDS011;9019;48.132;-1.210;2023-02-28T13:06:39;6.30;;;4.43;;
17790;SDS011;9019;48.132;-1.210;2023-02-28T13:09:23;5.93;;;4.13;;
17790;SDS011;9019;48.132;-1.210;2023-02-28T13:11:51;4.60;;;4.17;;
17790;SDS011;9019;48.132;-1.210;2023-02-28T13:14:22;5.63;;;4.90;;
17790;SDS011;9019;48.132;-1.210;2023-02-28T13:16:53;6.67;;;5.07;;
17790;SDS011;9019;48.132;-1.210;2023-02-28T13:19:23;5.70;;;4.83;;
17790;SDS011;9019;48.132;-1.210;2023-02-28T13:21:51;5.27;;;4.77;;
17790;SDS011;9019;48.132;-1.210;2023-02-28T13:27:20;6.17;;;4.60;;
17790;SDS011;9019;48.132;-1.210;2023-02-28T13:29:59;5.70;;;4.43;;
17790;SDS011;9019;48.132;-1.210;2023-02-28T13:44:09;6.10;;;4.70;;
17790;SDS011;9019;48.132;-1.210;2023-02-28T13:49:49;5.60;;;4.90;;
17790;SDS011;9019;48.132;-1.210;2023-02-28T13:52:18;6.50;;;5.17;;
17790;SDS011;9019;48.132;-1.210;2023-02-28T13:54:52;6.90;;;5.30;;
17790;SDS011;9019;48.132;-1.210;2023-02-28T13:57:38;7.33;;;5.07;;
17790;SDS011;9019;48.132;-1.210;2023-02-28T14:00:21;6.33;;;4.73;;
17790;SDS011;9019;48.132;-1.210;2023-02-28T14:03:04;6.27;;;5.33;;
17790;SDS011;9019;48.132;-1.210;2023-02-28T14:08:36;6.77;;;5.33;;
17790;SDS011;9019;48.132;-1.210;2023-02-28T14:11:04;10.07;;;5.03;;
17790;SDS011;9019;48.132;-1.210;2023-02-28T14:13:39;11.53;;;5.87;;
17790;SDS011;9019;48.132;-1.210;2023-02-28T14:16:10;8.07;;;5.73;;
17790;SDS011;9019;48.132;-1.210;2023-02-28T14:18:40;5.33;;;4.70;;
17790;SDS011;9019;48.132;-1.210;2023-02-28T14:21:16;5.70;;;4.33;;
17790;SDS011;9019;48.132;-1.210;2023-02-28T14:24:06;6.73;;;4.97;;
17790;SDS011;9019;48.132;-1.210;2023-02-28T14:26:55;4.70;;;4.30;;
17790;SDS011;9019;48.132;-1.210;2023-02-28T14:32:35;6.83;;;4.13;;
17790;SDS011;9019;48.132;-1.210;2023-02-28T14:35:16;5.00;;;4.50;;
17790;SDS011;9019;48.132;-1.210;2023-02-28T14:37:52;6.63;;;4.50;;
17790;SDS011;9019;48.132;-1.210;2023-02-28T14:40:21;6.27;;;4.90;;
17790;SDS011;9019;48.132;-1.210;2023-02-28T14:42:54;6.80;;;4.90;;
17790;SDS011;9019;48.132;-1.210;2023-02-28T14:45:24;7.70;;;4.90;;
17790;SDS011;9019;48.132;-1.210;2023-02-28T14:47:55;6.40;;;5.50;;
17790;SDS011;9019;48.132;-1.210;2023-02-28T14:50:27;8.93;;;5.17;;
17790;SDS011;9019;48.132;-1.210;2023-02-28T14:52:57;6.67;;;5.40;;
17790;SDS011;9019;48.132;-1.210;2023-02-28T14:55:28;7.70;;;5.43;;
17790;SDS011;9019;48.132;-1.210;2023-02-28T14:57:57;6.90;;;5.40;;
17790;SDS011;9019;48.132;-1.210;2023-02-28T15:00:28;7.37;;;5.67;;
17790;SDS011;9019;48.132;-1.210;2023-02-28T15:02:57;7.03;;;5.67;;
17790;SDS011;9019;48.132;-1.210;2023-02-28T15:05:27;6.73;;;5.90;;
17790;SDS011;9019;48.132;-1.210;2023-02-28T15:08:06;7.93;;;6.10;;
17790;SDS011;9019;48.132;-1.210;2023-02-28T15:10:38;8.13;;;6.53;;
17790;SDS011;9019;48.132;-1.210;2023-02-28T15:13:07;9.07;;;6.40;;
17790;SDS011;9019;48.132;-1.210;2023-02-28T15:15:42;8.93;;;6.60;;
17790;SDS011;9019;48.132;-1.210;2023-02-28T15:18:15;18.37;;;10.40;;
17790;SDS011;9019;48.132;-1.210;2023-02-28T15:20:49;12.33;;;7.17;;
17790;SDS011;9019;48.132;-1.210;2023-02-28T15:23:17;9.53;;;7.00;;
17790;SDS011;9019;48.132;-1.210;2023-02-28T15:25:45;9.73;;;7.40;;
17790;SDS011;9019;48.132;-1.210;2023-02-28T15:28:14;10.60;;;7.63;;
17790;SDS011;9019;48.132;-1.210;2023-02-28T15:30:53;11.80;;;7.30;;
17790;SDS011;9019;48.132;-1.210;2023-02-28T15:33:23;7.77;;;6.70;;
17790;SDS011;9019;48.132;-1.210;2023-02-28T15:36:02;9.40;;;7.63;;